Flight Track Log - Related Links

Times and Time Zones

All times are in EDT time to prevent confusion due to time zone crossing. See the JBU56 flight status page for this flight to view local times or setup timezone preferences in your user account.

Time Position Orientation Groundspeed Altitude Reporting Facility
EDT Latitude Longitude Course Direction KTS km/h feet Rate Location/Type
Tue 09h46:04 40.5833 -73.8000 14° North 198 367 2.200  Level New York TRACON
Tue 09h47:04 40.5833 -73.7333 90° East 259 480 4.700 2.750 Climbing New York TRACON
Tue 09h48:00 40.9719 -73.5891 21° North  Level FlightAware Approximate
Tue 09h48:04 40.6500 -73.6667 37° Northeast 293 542 7.700  Level New York TRACON
Tue 09h48:58 40.7000 -73.6000 45° Northeast 301 557 10.800 2.421 Climbing New York TRACON
Tue 09h49:00 41.0591 -73.5385 27° Northeast  Level FlightAware Approximate
Tue 09h49:58 40.8000 -73.5667 14° North 345 639 12.300  Level New York TRACON
Tue 09h50:00 41.1443 -73.4816 27° Northeast  Level FlightAware Approximate
Tue 09h51:00 41.2294 -73.4402 14° North  Level FlightAware Approximate
Tue 09h51:04 40.9000 -73.5333 14° North 370 686 15.200  Level New York TRACON
Tue 09h52:04 41.0000 -73.5000 14° North 402 745 17.000 1.446 Climbing New York TRACON
Tue 09h54:19 41.2522 -73.4036 16° North 408 756 19.900 1.538 Climbing Boston Center
Tue 09h55:19 41.3650 -73.3583 17° North 414 766 22.000 1.550 Climbing Boston Center
Tue 09h56:19 41.4822 -73.3075 18° North 425 787 23.000 500 Climbing Boston Center
Tue 09h57:19 41.5636 -73.2892 10° North 425 787 23.000  Level Boston Center
Tue 09h58:19 41.7031 -73.2992 357° North 414 766 23.000  Level Boston Center
Tue 09h59:19 41.8219 -73.3036 358° North 420 777 23.000  Level Boston Center
Tue 10h00:19 41.9386 -73.3108 357° North 420 777 23.000  Level Boston Center
Tue 10h01:19 42.0594 -73.3125 359° North 420 777 23.000  Level Boston Center
Tue 10h02:19 42.1739 -73.3169 358° North 420 777 23.000  Level Boston Center
Tue 10h03:19 42.2947 -73.3242 357° North 420 777 23.000  Level Boston Center
Tue 10h04:19 42.4261 -73.3233 360° North 420 777 23.000  Level Boston Center
Tue 10h05:19 42.5472 -73.3108 North 420 777 23.000  Level Boston Center
Tue 10h06:19 42.6556 -73.3067 North 420 777 23.000 -350 Level Boston Center
Tue 10h07:19 42.7744 -73.2972 North 420 777 22.300 -1.000 Descending Boston Center
Tue 10h08:19 42.8911 -73.2875 North 420 777 21.000 -650 Descending Boston Center
Tue 10h09:19 43.0058 -73.2806 North 420 777 21.000  Level Boston Center
Tue 10h10:19 43.1289 -73.2708 North 414 766 21.000  Level Boston Center
Tue 10h11:31 43.2414 -73.2581 North 408 756 21.000  Level Boston Center
Tue 10h12:31 43.3769 -73.2456 North 403 747 21.000 -300 Level Boston Center
Tue 10h13:31 43.4750 -73.2356 North 396 734 20.400 -1.350 Descending Boston Center
Tue 10h14:31 43.5856 -73.2283 North 391 724 18.300 -2.250 Descending Boston Center
Tue 10h15:31 43.7022 -73.2211 North 386 715 15.900 -2.100 Descending Boston Center
Tue 10h16:31 43.7983 -73.2108 North 360 666 14.100 -1.800 Descending Boston Center
Tue 10h17:31 43.8942 -73.2036 North 344 637 12.300 -1.550 Descending Boston Center
Tue 10h18:31 43.9858 -73.1961 North 331 613 11.000 -650 Descending Boston Center
Tue 10h19:31 44.0694 -73.1797 North 309 573 11.000 -950 Level Boston Center
Tue 10h20:31 44.1508 -73.1344 22° Northeast 302 560 9.100 -1.750 Descending Boston Center
Tue 10h21:31 44.2261 -73.0919 22° Northeast 297 550 7.500 -1.600 Descending Boston Center
Tue 10h22:31 44.2950 -73.0550 21° North 277 513 5.900 -1.600 Descending Boston Center
Tue 10h23:31 44.3597 -73.0267 17° North 253 468 4.300 -1.600 Descending Boston Center
Tue 10h24:31 44.4033 -73.0503 339° North 200 370 2.700 -1.450 Descending Boston Center
Tue 10h25:31 44.4344 -73.0942 315° West 165 306 1.400 -1.050 Descending Boston Center
Tue 10h26:31 44.4592 -73.1353 310° West 144 267 600 -500 Descending Boston Center
Tue 10h27:31 44.4800 -73.1644 315° West 121 224 400 -200 Descending Boston Center

Login

Don't have an account? Register now (free) for customized features, flight alerts, and more!